createdAt,value
2022-11-11T00:00:11.975Z,9.38
2022-11-11T00:01:14.731Z,9.38
2022-11-11T00:02:17.419Z,9.44
2022-11-11T00:03:59.691Z,9.38
2022-11-11T00:05:02.294Z,9.44
2022-11-11T00:06:05.127Z,9.44
2022-11-11T00:07:40.050Z,9.38
2022-11-11T00:08:42.768Z,9.38
2022-11-11T00:09:45.453Z,9.38
2022-11-11T00:11:19.928Z,9.38
2022-11-11T00:12:27.196Z,9.38
2022-11-11T00:13:30.150Z,9.38
2022-11-11T00:15:04.657Z,9.38
2022-11-11T00:16:07.318Z,9.38
2022-11-11T00:17:10.033Z,9.31
2022-11-11T00:18:44.602Z,9.38
2022-11-11T00:19:47.503Z,9.31
2022-11-11T00:20:53.577Z,9.31
2022-11-11T00:22:28.119Z,9.31
2022-11-11T00:23:30.945Z,9.31
2022-11-11T00:24:33.626Z,9.31
2022-11-11T00:26:37.395Z,9.31
2022-11-11T00:27:42.392Z,9.31
2022-11-11T00:28:45.225Z,9.31
2022-11-11T00:30:19.857Z,9.31
2022-11-11T00:31:22.863Z,9.31
2022-11-11T00:32:25.697Z,9.31
2022-11-11T00:34:00.516Z,9.31
2022-11-11T00:35:03.682Z,9.31
2022-11-11T00:36:06.516Z,9.31
2022-11-11T00:37:41.336Z,9.38
2022-11-11T00:38:44.163Z,9.38
2022-11-11T00:39:47.347Z,9.38
2022-11-11T00:41:21.984Z,9.38
2022-11-11T00:42:24.823Z,9.38
2022-11-11T00:43:27.711Z,9.44
2022-11-11T00:45:02.391Z,9.44
2022-11-11T00:46:05.294Z,9.44
2022-11-11T00:47:08.465Z,9.44
2022-11-11T00:48:43.401Z,9.44
2022-11-11T00:49:46.263Z,9.50
2022-11-11T00:50:49.175Z,9.50
2022-11-11T00:52:23.847Z,9.50
2022-11-11T00:53:27.668Z,9.50
2022-11-11T00:54:30.836Z,9.50
2022-11-11T00:56:05.514Z,9.56
2022-11-11T00:57:08.598Z,9.56
2022-11-11T00:58:11.655Z,9.56
2022-11-11T00:59:48.009Z,9.56
2022-11-11T01:00:12.500Z,9.56
2022-11-11T01:01:15.516Z,9.56
2022-11-11T01:02:19.277Z,9.56
2022-11-11T01:03:54.894Z,9.56
2022-11-11T01:04:57.926Z,9.56
2022-11-11T01:06:00.732Z,9.56
2022-11-11T01:07:36.283Z,9.56
2022-11-11T01:08:39.463Z,9.56
2022-11-11T01:09:42.505Z,9.63
2022-11-11T01:11:17.712Z,9.63
2022-11-11T01:12:21.138Z,9.63
2022-11-11T01:13:24.289Z,9.63
2022-11-11T01:14:59.540Z,9.63
2022-11-11T01:16:02.587Z,9.63
2022-11-11T01:17:05.620Z,9.63
2022-11-11T01:18:40.807Z,9.69
2022-11-11T01:19:44.336Z,9.69
2022-11-11T01:20:47.853Z,9.69
2022-11-11T01:22:24.887Z,9.69
2022-11-11T01:23:27.848Z,9.69
2022-11-11T01:24:30.744Z,9.69
2022-11-11T01:26:05.865Z,9.69
2022-11-11T01:27:17.015Z,9.69
2022-11-11T01:28:20.081Z,9.69
2022-11-11T01:29:56.024Z,9.69
2022-11-11T01:30:59.101Z,9.69
2022-11-11T01:32:02.378Z,9.69
2022-11-11T01:33:37.597Z,9.69
2022-11-11T01:34:40.589Z,9.69
2022-11-11T01:35:43.645Z,9.69
2022-11-11T01:37:18.779Z,9.69
2022-11-11T01:38:21.948Z,9.69
2022-11-11T01:39:25.929Z,9.69
2022-11-11T01:41:01.080Z,9.69
2022-11-11T01:42:04.250Z,9.69
2022-11-11T01:43:07.219Z,9.69
2022-11-11T01:44:43.615Z,9.75
2022-11-11T01:45:46.827Z,9.75
2022-11-11T01:46:50.003Z,9.75
2022-11-11T01:49:09.186Z,9.75
2022-11-11T01:50:12.584Z,9.75
2022-11-11T01:51:15.548Z,9.75
2022-11-11T01:52:50.896Z,9.75
2022-11-11T01:53:53.848Z,9.75
2022-11-11T01:54:57.150Z,9.75
2022-11-11T01:56:32.328Z,9.81
2022-11-11T01:57:35.490Z,9.81
2022-11-11T01:58:38.762Z,9.81
2022-11-11T02:00:12.171Z,9.81
2022-11-11T02:01:15.308Z,9.81
2022-11-11T02:02:19.114Z,9.81
2022-11-11T02:03:55.379Z,9.81
2022-11-11T02:04:58.926Z,9.81
2022-11-11T02:06:02.190Z,9.81
2022-11-11T02:07:38.178Z,9.81
2022-11-11T02:08:42.326Z,9.81
2022-11-11T02:09:45.220Z,9.81
2022-11-11T02:11:20.525Z,9.81
2022-11-11T02:12:23.763Z,9.81
2022-11-11T02:13:27.364Z,9.81
2022-11-11T02:15:02.576Z,9.81
2022-11-11T02:16:05.699Z,9.81
2022-11-11T02:17:09.326Z,9.81
2022-11-11T02:18:44.519Z,9.81
2022-11-11T02:19:47.699Z,9.81
2022-11-11T02:20:51.537Z,9.88
2022-11-11T02:22:26.980Z,9.81
2022-11-11T02:23:30.420Z,9.88
2022-11-11T02:24:33.823Z,9.81
2022-11-11T02:26:09.242Z,9.81
2022-11-11T02:27:12.551Z,9.81
2022-11-11T02:28:15.643Z,9.81
2022-11-11T02:29:50.921Z,9.81
2022-11-11T02:30:54.761Z,9.81
2022-11-11T02:31:57.956Z,9.81
2022-11-11T02:33:33.760Z,9.81
2022-11-11T02:34:36.935Z,9.81
2022-11-11T02:35:40.186Z,9.81
2022-11-11T02:37:15.734Z,9.81
2022-11-11T02:38:19.004Z,9.81
2022-11-11T02:39:27.432Z,9.81
2022-11-11T02:41:32.427Z,9.81
2022-11-11T02:42:35.589Z,9.75
2022-11-11T02:43:38.603Z,9.81
2022-11-11T02:45:14.126Z,9.75
2022-11-11T02:46:17.323Z,9.75
2022-11-11T02:47:20.097Z,9.75
2022-11-11T02:48:55.687Z,9.75
2022-11-11T02:49:58.931Z,9.75
2022-11-11T02:51:02.421Z,9.75
2022-11-11T02:52:37.869Z,9.75
2022-11-11T02:53:41.731Z,9.75
2022-11-11T02:54:45.738Z,9.75
2022-11-11T02:56:21.812Z,9.75
2022-11-11T02:57:24.914Z,9.75
2022-11-11T02:58:28.168Z,9.75
2022-11-11T03:00:11.898Z,9.75
2022-11-11T03:01:15.269Z,9.75
2022-11-11T03:02:19.300Z,9.75
2022-11-11T03:03:56.010Z,9.75
2022-11-11T03:04:59.135Z,9.75
2022-11-11T03:06:02.289Z,9.75
2022-11-11T03:07:38.104Z,9.75
2022-11-11T03:08:42.244Z,9.75
2022-11-11T03:09:45.321Z,9.75
2022-11-11T03:11:20.667Z,9.75
2022-11-11T03:12:24.068Z,9.75
2022-11-11T03:13:27.954Z,9.75
2022-11-11T03:15:03.472Z,9.75
2022-11-11T03:16:06.888Z,9.81
2022-11-11T03:17:10.254Z,9.75
2022-11-11T03:18:45.924Z,9.75
2022-11-11T03:19:49.127Z,9.81
2022-11-11T03:20:52.255Z,9.81
2022-11-11T03:24:08.563Z,9.75
2022-11-11T03:25:11.227Z,9.75
2022-11-11T03:26:13.948Z,9.75
2022-11-11T03:27:48.354Z,9.75
2022-11-11T03:28:50.956Z,9.75
2022-11-11T03:29:53.614Z,9.81
2022-11-11T03:31:28.143Z,9.81
2022-11-11T03:32:30.953Z,9.81
2022-11-11T03:33:33.635Z,9.81
2022-11-11T03:35:08.196Z,9.81
2022-11-11T03:36:10.811Z,9.81
2022-11-11T03:37:13.572Z,9.81
2022-11-11T03:38:47.990Z,9.81
2022-11-11T03:39:50.746Z,9.81
2022-11-11T03:40:53.363Z,9.81
2022-11-11T03:42:27.684Z,9.81
2022-11-11T03:43:38.783Z,9.81
2022-11-11T03:44:41.467Z,9.81
2022-11-11T03:46:16.039Z,9.81
2022-11-11T03:47:18.718Z,9.81
2022-11-11T03:48:21.376Z,9.81
2022-11-11T03:49:55.952Z,9.81
2022-11-11T03:50:58.709Z,9.81
2022-11-11T03:52:01.843Z,9.81
2022-11-11T03:53:36.375Z,9.81
2022-11-11T03:54:38.974Z,9.81
2022-11-11T03:55:41.720Z,9.81
2022-11-11T03:57:16.230Z,9.81
2022-11-11T03:58:18.964Z,9.81
2022-11-11T03:59:21.684Z,9.81
2022-11-11T04:00:14.653Z,9.81
2022-11-11T04:01:17.779Z,9.75
2022-11-11T04:02:20.979Z,9.81
2022-11-11T04:03:55.851Z,9.75
2022-11-11T04:04:58.472Z,9.75
2022-11-11T04:06:01.127Z,9.75
2022-11-11T04:07:36.051Z,9.75
2022-11-11T04:08:38.799Z,9.75
2022-11-11T04:09:41.530Z,9.75
2022-11-11T04:11:15.916Z,9.75
2022-11-11T04:12:18.591Z,9.75
2022-11-11T04:13:21.775Z,9.75
2022-11-11T04:14:56.533Z,9.69
2022-11-11T04:15:59.195Z,9.69
2022-11-11T04:17:01.832Z,9.69
2022-11-11T04:18:44.156Z,9.69
2022-11-11T04:19:46.803Z,9.69
2022-11-11T04:20:49.467Z,9.69
2022-11-11T04:22:24.023Z,9.63
2022-11-11T04:23:26.850Z,9.63
2022-11-11T04:24:29.576Z,9.63
2022-11-11T04:26:04.121Z,9.63
2022-11-11T04:27:06.902Z,9.63
2022-11-11T04:28:09.686Z,9.69
2022-11-11T04:29:44.129Z,9.63
2022-11-11T04:30:46.825Z,9.63
2022-11-11T04:31:49.516Z,9.63
2022-11-11T04:33:24.231Z,9.63
2022-11-11T04:34:27.250Z,9.63
2022-11-11T04:35:29.943Z,9.63
2022-11-11T04:37:04.483Z,9.63
2022-11-11T04:38:07.190Z,9.56
2022-11-11T04:39:09.952Z,9.56
2022-11-11T04:40:44.491Z,9.56
2022-11-11T04:42:07.081Z,9.56
2022-11-11T04:43:11.190Z,9.56
2022-11-11T04:44:46.159Z,9.56
2022-11-11T04:45:48.904Z,9.56
2022-11-11T04:46:51.627Z,9.56
2022-11-11T04:48:26.009Z,9.56
2022-11-11T04:49:28.817Z,9.56
2022-11-11T04:50:31.552Z,9.56
2022-11-11T04:52:06.194Z,9.56
2022-11-11T04:53:08.898Z,9.56
2022-11-11T04:54:12.346Z,9.56
2022-11-11T04:55:46.720Z,9.56
2022-11-11T04:56:49.469Z,9.56
2022-11-11T04:57:52.153Z,9.56
2022-11-11T04:59:26.815Z,9.56
2022-11-11T05:00:11.849Z,9.56
2022-11-11T05:01:20.604Z,9.56
2022-11-11T05:02:23.604Z,9.56
2022-11-11T05:03:58.639Z,9.56
2022-11-11T05:05:01.285Z,9.56
2022-11-11T05:05:42.385Z,9.56
2022-11-11T05:06:45.320Z,9.56
2022-11-11T05:07:52.734Z,9.56
2022-11-11T05:09:27.185Z,9.56
2022-11-11T05:10:29.969Z,9.56
2022-11-11T05:11:32.885Z,9.50
2022-11-11T05:13:07.535Z,9.50
2022-11-11T05:14:16.557Z,9.50
2022-11-11T05:15:19.206Z,9.50
2022-11-11T05:16:53.672Z,9.50
2022-11-11T05:17:56.403Z,9.50
2022-11-11T05:18:59.131Z,9.50
2022-11-11T05:20:38.765Z,9.50
2022-11-11T05:21:42.014Z,9.50
2022-11-11T05:22:44.706Z,9.50
2022-11-11T05:24:19.359Z,9.50
2022-11-11T05:25:22.311Z,9.50
2022-11-11T05:26:29.517Z,9.50
2022-11-11T05:28:06.308Z,9.50
2022-11-11T05:29:09.037Z,9.50
2022-11-11T05:30:11.688Z,9.50
2022-11-11T05:31:51.294Z,9.44
2022-11-11T05:32:54.185Z,9.50
2022-11-11T05:33:57.271Z,9.44
2022-11-11T05:35:31.785Z,9.50
2022-11-11T05:36:34.430Z,9.50
2022-11-11T05:37:37.295Z,9.50
2022-11-11T05:39:11.727Z,9.50
2022-11-11T05:40:14.471Z,9.50
2022-11-11T05:41:17.194Z,9.50
2022-11-11T05:42:54.372Z,9.50
2022-11-11T05:43:57.994Z,9.50
2022-11-11T05:45:00.869Z,9.50
2022-11-11T05:46:35.449Z,9.50
2022-11-11T05:47:38.137Z,9.50
2022-11-11T05:48:40.846Z,9.50
2022-11-11T05:50:15.391Z,9.50
2022-11-11T05:51:18.093Z,9.50
2022-11-11T05:52:25.192Z,9.50
2022-11-11T05:54:00.370Z,9.50
2022-11-11T05:55:03.019Z,9.50
2022-11-11T05:56:05.671Z,9.50
2022-11-11T05:57:40.111Z,9.50
2022-11-11T05:58:44.989Z,9.50
2022-11-11T05:59:50.866Z,9.50
2022-11-11T06:00:12.397Z,9.50
2022-11-11T06:01:15.110Z,9.50
2022-11-11T06:02:18.193Z,9.50
2022-11-11T06:03:52.914Z,9.50
2022-11-11T06:05:02.778Z,9.50
2022-11-11T06:06:05.678Z,9.50
2022-11-11T06:07:40.507Z,9.50
2022-11-11T06:08:43.220Z,9.50
2022-11-11T06:09:46.098Z,9.50
2022-11-11T06:11:20.587Z,9.50
2022-11-11T06:12:29.675Z,9.50
2022-11-11T06:13:32.318Z,9.50
2022-11-11T06:15:06.870Z,9.50
2022-11-11T06:16:09.496Z,9.50
2022-11-11T06:17:12.146Z,9.50
2022-11-11T06:18:46.657Z,9.50
2022-11-11T06:19:49.298Z,9.50
2022-11-11T06:20:52.081Z,9.50
2022-11-11T06:22:26.637Z,9.50
2022-11-11T06:23:29.340Z,9.50
2022-11-11T06:24:32.302Z,9.50
2022-11-11T06:26:06.904Z,9.50
2022-11-11T06:27:09.993Z,9.50
2022-11-11T06:28:12.770Z,9.50
2022-11-11T06:29:47.364Z,9.50
2022-11-11T06:31:36.899Z,9.50
2022-11-11T06:32:39.636Z,9.50
2022-11-11T06:34:14.744Z,9.50
2022-11-11T06:35:17.436Z,9.50
2022-11-11T06:36:20.219Z,9.50
2022-11-11T06:37:54.788Z,9.50
2022-11-11T06:38:57.437Z,9.50
2022-11-11T06:40:00.187Z,9.50
2022-11-11T06:41:39.690Z,9.50
2022-11-11T06:42:42.435Z,9.50
2022-11-11T06:43:45.130Z,9.50
2022-11-11T06:45:19.621Z,9.50
2022-11-11T06:46:22.394Z,9.50
2022-11-11T06:47:25.122Z,9.50
2022-11-11T06:48:59.606Z,9.50
2022-11-11T06:50:02.326Z,9.44
2022-11-11T06:51:05.026Z,9.44
2022-11-11T06:52:39.715Z,9.44
2022-11-11T06:53:42.494Z,9.44
2022-11-11T06:54:45.351Z,9.44
2022-11-11T06:56:19.927Z,9.44
2022-11-11T06:57:22.622Z,9.38
2022-11-11T06:58:25.763Z,9.38
2022-11-11T07:00:00.482Z,9.38
2022-11-11T07:00:12.004Z,9.38
2022-11-11T07:01:14.868Z,9.38
2022-11-11T07:02:18.003Z,9.38
2022-11-11T07:03:59.015Z,9.38
2022-11-11T07:05:01.831Z,9.38
2022-11-11T07:06:04.454Z,9.38
2022-11-11T07:07:39.466Z,9.38
2022-11-11T07:08:42.345Z,9.38
2022-11-11T07:09:45.030Z,9.38
2022-11-11T07:11:19.677Z,9.31
2022-11-11T07:12:22.397Z,9.31
2022-11-11T07:13:25.153Z,9.31
2022-11-11T07:14:59.514Z,9.31
2022-11-11T07:16:02.156Z,9.38
2022-11-11T07:17:06.240Z,9.38
2022-11-11T07:18:41.220Z,9.38
2022-11-11T07:19:44.096Z,9.38
2022-11-11T07:20:47.093Z,9.38
2022-11-11T07:22:21.573Z,9.38
2022-11-11T07:23:29.574Z,9.44
2022-11-11T07:24:32.160Z,9.44
2022-11-11T07:26:06.679Z,9.38
2022-11-11T07:27:09.475Z,9.44
2022-11-11T07:28:12.309Z,9.44
2022-11-11T07:29:47.601Z,9.44
2022-11-11T07:30:50.280Z,9.44
2022-11-11T07:31:53.027Z,9.44
2022-11-11T07:33:27.575Z,9.44
2022-11-11T07:34:30.311Z,9.44
2022-11-11T07:35:33.238Z,9.44
2022-11-11T07:37:07.796Z,9.44
2022-11-11T07:38:10.476Z,9.44
2022-11-11T07:39:14.152Z,9.44
2022-11-11T07:40:48.891Z,9.44
2022-11-11T07:41:51.627Z,9.44
2022-11-11T07:43:12.953Z,9.44
2022-11-11T07:44:49.487Z,9.44
2022-11-11T07:45:52.410Z,9.44
2022-11-11T07:46:55.110Z,9.44
2022-11-11T07:48:29.526Z,9.44
2022-11-11T07:49:32.212Z,9.44
2022-11-11T07:50:42.326Z,9.44
2022-11-11T07:52:16.940Z,9.44
2022-11-11T07:53:19.673Z,9.44
2022-11-11T07:54:23.124Z,9.44
2022-11-11T07:55:57.691Z,9.44
2022-11-11T07:57:00.396Z,9.44
2022-11-11T07:58:03.124Z,9.44
2022-11-11T07:59:38.181Z,9.44
2022-11-11T08:00:12.741Z,9.44
2022-11-11T08:01:15.870Z,9.50
2022-11-11T08:02:19.226Z,9.44
2022-11-11T08:03:55.114Z,9.50
2022-11-11T08:04:57.846Z,9.50
2022-11-11T08:06:00.623Z,9.50
2022-11-11T08:07:35.392Z,9.50
2022-11-11T08:08:38.185Z,9.50
2022-11-11T08:09:40.963Z,9.50
2022-11-11T08:11:15.366Z,9.50
2022-11-11T08:12:20.931Z,9.50
2022-11-11T08:13:25.120Z,9.44
2022-11-11T08:15:05.996Z,9.44
2022-11-11T08:16:09.498Z,9.44
2022-11-11T08:17:12.250Z,9.44
2022-11-11T08:18:46.831Z,9.44
2022-11-11T08:19:49.587Z,9.44
2022-11-11T08:20:55.139Z,9.44
2022-11-11T08:22:30.130Z,9.44
2022-11-11T08:25:31.351Z,9.50
2022-11-11T08:26:33.981Z,9.50
2022-11-11T08:28:08.505Z,9.44
2022-11-11T08:29:11.678Z,9.50
2022-11-11T08:30:14.386Z,9.50
2022-11-11T08:31:50.645Z,9.50
2022-11-11T08:33:18.708Z,9.50
2022-11-11T08:34:34.906Z,9.50
2022-11-11T08:36:09.345Z,9.50
2022-11-11T08:37:18.231Z,9.50
2022-11-11T08:38:21.131Z,9.50
2022-11-11T08:39:55.835Z,9.50
2022-11-11T08:40:58.555Z,9.50
2022-11-11T08:42:01.373Z,9.50
2022-11-11T08:43:37.486Z,9.44
2022-11-11T08:44:40.516Z,9.44
2022-11-11T08:45:43.176Z,9.38
2022-11-11T08:47:18.578Z,9.38
2022-11-11T08:48:21.281Z,9.38
2022-11-11T08:49:24.075Z,9.38
2022-11-11T08:50:58.597Z,9.38
2022-11-11T08:52:01.288Z,9.38
2022-11-11T08:53:04.025Z,9.38
2022-11-11T08:54:39.442Z,9.38
2022-11-11T08:55:42.191Z,9.38
2022-11-11T08:56:44.923Z,9.38
2022-11-11T08:58:20.073Z,9.38
2022-11-11T08:59:22.889Z,9.38
2022-11-11T09:00:12.228Z,9.38
2022-11-11T09:01:15.194Z,9.38
2022-11-11T09:02:18.575Z,9.38
2022-11-11T09:03:53.047Z,9.31
2022-11-11T09:05:41.495Z,9.31
2022-11-11T09:06:44.210Z,9.31
2022-11-11T09:08:19.294Z,9.25
2022-11-11T09:09:22.002Z,9.25
2022-11-11T09:10:24.821Z,9.25
2022-11-11T09:11:59.413Z,9.25
2022-11-11T09:13:02.146Z,9.25
2022-11-11T09:14:05.288Z,9.25
2022-11-11T09:15:39.785Z,9.25
2022-11-11T09:16:42.558Z,9.25
2022-11-11T09:17:45.260Z,9.25
2022-11-11T09:19:19.736Z,9.31
2022-11-11T09:20:25.233Z,9.31
2022-11-11T09:21:28.229Z,9.31
2022-11-11T09:23:02.796Z,9.31
2022-11-11T09:24:06.093Z,9.31
2022-11-11T09:25:08.760Z,9.31
2022-11-11T09:26:43.319Z,9.31
2022-11-11T09:27:46.078Z,9.31
2022-11-11T09:28:48.814Z,9.31
2022-11-11T09:30:23.244Z,9.38
2022-11-11T09:32:45.760Z,9.38
2022-11-11T09:34:20.355Z,9.38
2022-11-11T09:35:23.454Z,9.38
2022-11-11T09:36:26.205Z,9.44
2022-11-11T09:38:00.648Z,9.44
2022-11-11T09:39:03.231Z,9.44
2022-11-11T09:40:06.048Z,9.44
2022-11-11T09:41:40.800Z,9.44
2022-11-11T09:42:53.358Z,9.44
2022-11-11T09:43:56.106Z,9.44
2022-11-11T09:45:30.668Z,9.50
2022-11-11T09:46:33.511Z,9.50
2022-11-11T09:47:36.374Z,9.50
2022-11-11T09:49:22.731Z,9.56
2022-11-11T09:50:25.525Z,9.56
2022-11-11T09:51:28.362Z,9.63
2022-11-11T09:53:02.878Z,9.63
2022-11-11T09:54:05.687Z,9.69
2022-11-11T09:55:14.633Z,9.69
2022-11-11T09:57:10.922Z,9.69
2022-11-11T09:58:13.709Z,9.69
2022-11-11T09:59:17.055Z,9.75
2022-11-11T10:00:11.860Z,9.75
2022-11-11T10:01:20.535Z,9.81
2022-11-11T10:02:23.667Z,9.75
2022-11-11T10:03:58.230Z,9.81
2022-11-11T10:05:01.142Z,9.81
2022-11-11T10:06:04.079Z,9.81
2022-11-11T10:07:46.518Z,9.88
2022-11-11T10:08:49.308Z,9.88
2022-11-11T10:09:51.986Z,9.88
2022-11-11T10:11:26.567Z,9.94
2022-11-11T10:12:29.357Z,9.94
2022-11-11T10:13:39.171Z,9.94
2022-11-11T10:15:13.684Z,9.94
2022-11-11T10:16:16.290Z,10.00
2022-11-11T10:17:19.044Z,10.00
2022-11-11T10:19:04.243Z,10.00
2022-11-11T10:20:07.051Z,10.00
2022-11-11T10:21:09.783Z,10.06
2022-11-11T10:23:20.350Z,10.06
2022-11-11T10:24:23.052Z,10.13
2022-11-11T10:25:37.187Z,10.13
2022-11-11T10:27:11.784Z,10.13
2022-11-11T10:28:14.553Z,10.19
2022-11-11T10:29:17.960Z,10.19
2022-11-11T10:30:52.505Z,10.19
2022-11-11T10:31:55.265Z,10.25
2022-11-11T10:32:58.136Z,10.31
2022-11-11T10:34:32.735Z,10.31
2022-11-11T10:35:35.534Z,10.38
2022-11-11T10:36:38.250Z,10.38
2022-11-11T10:38:12.796Z,10.44
2022-11-11T10:39:16.396Z,10.44
2022-11-11T10:40:19.157Z,10.44
2022-11-11T10:41:53.893Z,10.50
2022-11-11T10:42:56.711Z,10.50
2022-11-11T10:43:59.351Z,10.56
2022-11-11T10:45:39.177Z,10.56
2022-11-11T10:46:42.568Z,10.63
2022-11-11T10:47:45.419Z,10.63
2022-11-11T10:49:24.217Z,10.69
2022-11-11T10:50:27.273Z,10.69
2022-11-11T10:51:30.018Z,10.69
2022-11-11T10:53:04.661Z,10.69
2022-11-11T10:54:07.715Z,10.75
2022-11-11T10:55:17.344Z,10.75
2022-11-11T10:56:51.865Z,10.75
2022-11-11T10:57:54.617Z,10.81
2022-11-11T10:58:57.937Z,10.88
2022-11-11T11:00:12.443Z,10.88
2022-11-11T11:01:21.769Z,10.88
2022-11-11T11:02:25.075Z,10.94
2022-11-11T11:03:59.687Z,10.94
2022-11-11T11:05:02.389Z,11.00
2022-11-11T11:06:05.194Z,11.00
2022-11-11T11:07:45.157Z,11.06
2022-11-11T11:08:47.927Z,11.13
2022-11-11T11:09:50.733Z,11.13
2022-11-11T11:11:25.363Z,11.13
2022-11-11T11:12:33.384Z,11.19
2022-11-11T11:13:36.077Z,11.19
2022-11-11T11:15:10.646Z,11.19
2022-11-11T11:16:13.309Z,11.25
2022-11-11T11:17:16.195Z,11.25
2022-11-11T11:18:50.828Z,11.31
2022-11-11T11:19:53.617Z,11.31
2022-11-11T11:20:56.409Z,11.31
2022-11-11T11:22:30.859Z,11.31
2022-11-11T11:23:33.620Z,11.31
2022-11-11T11:24:40.925Z,11.38
2022-11-11T11:26:18.234Z,11.38
2022-11-11T11:27:21.032Z,11.44
2022-11-11T11:28:24.117Z,11.44
2022-11-11T11:29:58.896Z,11.50
2022-11-11T11:31:08.414Z,11.50
2022-11-11T11:32:11.233Z,11.56
2022-11-11T11:33:45.667Z,11.56
2022-11-11T11:34:48.476Z,11.56
2022-11-11T11:35:51.172Z,11.56
2022-11-11T11:37:25.538Z,11.56
2022-11-11T11:38:28.327Z,11.56
2022-11-11T11:39:31.118Z,11.56
2022-11-11T11:41:05.691Z,11.63
2022-11-11T11:42:08.462Z,11.63
2022-11-11T11:43:11.102Z,11.63
2022-11-11T11:44:45.784Z,11.69
2022-11-11T11:45:48.590Z,11.69
2022-11-11T11:46:57.009Z,11.75
2022-11-11T11:49:12.069Z,11.81
2022-11-11T11:50:14.793Z,11.94
2022-11-11T11:51:17.507Z,11.94
2022-11-11T11:52:52.028Z,12.06
2022-11-11T11:53:54.821Z,12.06
2022-11-11T11:54:57.621Z,12.13
2022-11-11T11:56:32.193Z,12.25
2022-11-11T11:57:34.972Z,12.31
2022-11-11T11:58:41.360Z,12.31
2022-11-11T12:00:11.318Z,12.38
2022-11-11T12:01:14.178Z,12.44
2022-11-11T12:02:17.078Z,12.44
2022-11-11T12:03:52.206Z,12.44
2022-11-11T12:04:55.003Z,12.50
2022-11-11T12:05:57.853Z,12.50
2022-11-11T12:07:32.731Z,12.44
2022-11-11T12:08:35.513Z,12.50
2022-11-11T12:09:38.314Z,12.50
2022-11-11T12:11:18.381Z,12.50
2022-11-11T12:12:21.037Z,12.50
2022-11-11T12:13:23.868Z,12.56
2022-11-11T12:14:58.385Z,12.56
2022-11-11T12:16:01.107Z,12.56
2022-11-11T12:17:04.086Z,12.63
2022-11-11T12:18:38.724Z,12.69
2022-11-11T12:19:41.375Z,12.75
2022-11-11T12:20:44.167Z,12.75
2022-11-11T12:22:18.634Z,12.81
2022-11-11T12:23:27.848Z,12.88
2022-11-11T12:24:30.718Z,12.88
2022-11-11T12:26:05.971Z,12.88
2022-11-11T12:27:08.728Z,12.94
2022-11-11T12:28:11.684Z,12.88
2022-11-11T12:29:46.719Z,12.88
2022-11-11T12:30:49.539Z,12.88
2022-11-11T12:31:52.249Z,12.88
2022-11-11T12:33:34.395Z,12.88
2022-11-11T12:34:37.190Z,12.88
2022-11-11T12:35:39.934Z,12.88
2022-11-11T12:37:14.469Z,12.88
2022-11-11T12:38:17.396Z,12.88
2022-11-11T12:39:20.783Z,12.88
2022-11-11T12:40:55.311Z,12.88
2022-11-11T12:41:58.146Z,12.88
2022-11-11T12:43:00.916Z,12.88
2022-11-11T12:44:35.912Z,12.88
2022-11-11T12:45:43.770Z,12.88
2022-11-11T12:46:46.470Z,12.81
2022-11-11T12:48:21.051Z,12.88
2022-11-11T12:49:23.856Z,12.88
2022-11-11T12:50:26.662Z,12.94
2022-11-11T12:52:01.317Z,12.94
2022-11-11T12:53:04.080Z,12.94
2022-11-11T12:54:07.560Z,12.94
2022-11-11T12:55:42.023Z,12.88
2022-11-11T12:56:44.704Z,12.88
2022-11-11T12:57:47.350Z,12.81
2022-11-11T12:59:27.955Z,12.81
2022-11-11T13:00:12.595Z,12.81
2022-11-11T13:01:15.473Z,12.75
2022-11-11T13:02:18.869Z,12.75
2022-11-11T13:03:53.279Z,12.75
2022-11-11T13:04:56.164Z,12.75
2022-11-11T13:05:58.908Z,12.75
2022-11-11T13:07:34.040Z,12.69
2022-11-11T13:08:36.814Z,12.69
2022-11-11T13:09:39.498Z,12.63
2022-11-11T13:11:14.075Z,12.63
2022-11-11T13:12:18.758Z,12.63
2022-11-11T13:13:21.856Z,12.63
2022-11-11T13:14:56.875Z,12.56
2022-11-11T13:15:59.585Z,12.56
2022-11-11T13:17:02.339Z,12.56
2022-11-11T13:18:36.910Z,12.50
2022-11-11T13:19:46.954Z,12.50
2022-11-11T13:20:49.687Z,12.44
2022-11-11T13:22:24.261Z,12.44
2022-11-11T13:23:27.157Z,12.44
2022-11-11T13:24:30.327Z,12.38
2022-11-11T13:26:17.529Z,12.38
2022-11-11T13:27:20.229Z,12.38
2022-11-11T13:28:23.139Z,12.31
2022-11-11T13:29:57.751Z,12.31
2022-11-11T13:31:00.476Z,12.31
2022-11-11T13:32:03.221Z,12.31
2022-11-11T13:33:37.690Z,12.25
2022-11-11T13:34:40.403Z,12.25
2022-11-11T13:35:43.182Z,12.25
2022-11-11T13:37:17.674Z,12.19
2022-11-11T13:38:20.465Z,12.19
2022-11-11T13:39:23.219Z,12.19
2022-11-11T13:41:05.472Z,12.19
2022-11-11T13:42:08.229Z,12.13
2022-11-11T13:43:11.029Z,12.13
2022-11-11T13:44:46.494Z,12.06
2022-11-11T13:45:49.182Z,12.06
2022-11-11T13:46:51.832Z,12.06
2022-11-11T13:48:26.315Z,12.06
2022-11-11T13:49:28.973Z,12.00
2022-11-11T13:50:31.689Z,12.00
2022-11-11T13:52:06.071Z,11.94
2022-11-11T13:53:13.923Z,11.94
2022-11-11T13:54:17.258Z,11.94
2022-11-11T13:55:51.673Z,11.88
2022-11-11T13:56:54.392Z,11.88
2022-11-11T13:57:57.114Z,11.88
2022-11-11T13:59:31.673Z,11.81
2022-11-11T14:00:12.230Z,11.81
2022-11-11T14:01:14.988Z,11.81
2022-11-11T14:02:23.780Z,11.75
2022-11-11T14:03:59.023Z,11.75
2022-11-11T14:05:01.776Z,11.75
2022-11-11T14:06:04.470Z,11.69
2022-11-11T14:07:39.459Z,11.63
2022-11-11T14:08:42.204Z,11.63
2022-11-11T14:09:44.968Z,11.63
2022-11-11T14:11:19.581Z,11.63
2022-11-11T14:12:22.293Z,11.56
2022-11-11T14:13:25.961Z,11.56
2022-11-11T14:15:00.728Z,11.56
2022-11-11T14:16:03.469Z,11.56
2022-11-11T14:17:06.144Z,11.56
2022-11-11T14:18:40.567Z,11.50
2022-11-11T14:19:43.294Z,11.50
2022-11-11T14:20:46.005Z,11.50
2022-11-11T14:22:23.776Z,11.44
2022-11-11T14:23:27.000Z,11.44
2022-11-11T14:24:29.926Z,11.44
2022-11-11T14:26:04.340Z,11.44
2022-11-11T14:27:07.284Z,11.38
2022-11-11T14:28:10.000Z,11.38
2022-11-11T14:29:44.537Z,11.38
2022-11-11T14:30:47.398Z,11.38
2022-11-11T14:31:53.023Z,11.31
2022-11-11T14:33:28.043Z,11.31
2022-11-11T14:34:30.886Z,11.31
2022-11-11T14:35:33.592Z,11.25
2022-11-11T14:37:08.257Z,11.25
2022-11-11T14:38:10.995Z,11.25
2022-11-11T14:39:13.757Z,11.25
2022-11-11T14:40:48.327Z,11.19
2022-11-11T14:41:51.030Z,11.19
2022-11-11T14:42:53.745Z,11.19
2022-11-11T14:44:28.552Z,11.13
2022-11-11T14:45:31.305Z,11.13
2022-11-11T14:46:34.146Z,11.13
2022-11-11T14:48:08.677Z,11.13
2022-11-11T14:49:11.615Z,11.13
2022-11-11T14:50:14.414Z,11.06
2022-11-11T14:51:48.981Z,11.06
2022-11-11T14:52:51.688Z,11.06
2022-11-11T14:53:54.415Z,11.06
2022-11-11T14:55:29.034Z,11.00
2022-11-11T14:56:31.833Z,11.00
2022-11-11T14:57:40.729Z,11.00
2022-11-11T14:59:15.263Z,10.94
2022-11-11T15:00:11.799Z,10.94
2022-11-11T15:01:14.656Z,10.94
2022-11-11T15:02:20.164Z,10.94
2022-11-11T15:03:54.909Z,10.94
2022-11-11T15:04:57.668Z,10.88
2022-11-11T15:06:00.469Z,10.88
2022-11-11T15:07:35.379Z,10.88
2022-11-11T15:08:38.141Z,10.88
2022-11-11T15:09:44.800Z,10.81
2022-11-11T15:11:19.303Z,10.81
2022-11-11T15:12:22.008Z,10.81
2022-11-11T15:13:25.003Z,10.81
2022-11-11T15:14:59.936Z,10.75
2022-11-11T15:16:02.646Z,10.75
2022-11-11T15:17:05.456Z,10.75
2022-11-11T15:18:40.054Z,10.69
2022-11-11T15:19:42.711Z,10.69
2022-11-11T15:20:45.608Z,10.69
2022-11-11T15:22:20.079Z,10.69
2022-11-11T15:23:27.842Z,10.69
2022-11-11T15:24:30.871Z,10.69
2022-11-11T15:26:05.385Z,10.69
2022-11-11T15:27:08.168Z,10.63
2022-11-11T15:28:10.867Z,10.69
2022-11-11T15:29:45.544Z,10.63
2022-11-11T15:30:55.030Z,10.63
2022-11-11T15:31:58.109Z,10.63
2022-11-11T15:33:32.713Z,10.63
2022-11-11T15:34:35.443Z,10.56
2022-11-11T15:35:38.163Z,10.56
2022-11-11T15:37:17.806Z,10.56
2022-11-11T15:38:20.556Z,10.56
2022-11-11T15:39:23.382Z,10.50
2022-11-11T15:40:59.995Z,10.50
2022-11-11T15:42:09.747Z,10.50
2022-11-11T15:43:12.518Z,10.44
2022-11-11T15:44:48.012Z,10.44
2022-11-11T15:45:50.722Z,10.38
2022-11-11T15:46:53.603Z,10.38
2022-11-11T15:48:28.084Z,10.31
2022-11-11T15:49:30.788Z,10.31
2022-11-11T15:50:33.769Z,10.31
2022-11-11T15:52:08.287Z,10.31
2022-11-11T15:53:11.194Z,10.25
2022-11-11T15:54:14.642Z,10.25
2022-11-11T15:55:49.210Z,10.25
2022-11-11T15:56:51.955Z,10.19
2022-11-11T15:58:00.808Z,10.19
2022-11-11T15:59:36.071Z,10.13
2022-11-11T16:00:11.714Z,10.13
2022-11-11T16:01:14.420Z,10.13
2022-11-11T16:02:17.675Z,10.06
2022-11-11T16:03:57.210Z,10.06
2022-11-11T16:05:40.318Z,10.00
2022-11-11T16:06:42.951Z,10.00
2022-11-11T16:08:17.994Z,9.94
2022-11-11T16:09:21.470Z,9.94
2022-11-11T16:10:24.227Z,9.94
2022-11-11T16:11:58.826Z,9.94
2022-11-11T16:13:01.509Z,9.88
2022-11-11T16:14:08.194Z,9.88
2022-11-11T16:15:43.268Z,9.88